Time;durP1;ratioP1;P1;durP2;ratioP2;P2;SDS_P1;SDS_P2;PMS_P1;PMS_P2;Temp;Humidity;BMP_temperature;BMP_pressure;BME280_temperature;BME280_humidity;BME280_pressure;Samples;Min_cycle;Max_cycle;Signal;HPM_P1;HPM_P2
2022/03/10 00:00:08;;;;;;;33.15;17.33;;;;;;;7.81;42.14;102245.16;6215556;23;20005;-63
2022/03/10 00:02:33;;;;;;;33.67;17.13;;;;;;;7.92;42.20;102241.28;6215042;23;20130;-63
2022/03/10 00:04:59;;;;;;;36.53;17.40;;;;;;;7.92;41.75;102248.22;6215293;23;20032;-64
2022/03/10 00:07:24;;;;;;;34.85;18.17;;;;;;;7.94;41.76;102247.47;6215257;23;20311;-63
2022/03/10 00:09:50;;;;;;;31.80;17.58;;;;;;;7.91;41.86;102233.28;6215401;23;20001;-63
2022/03/10 00:12:15;;;;;;;34.78;16.65;;;;;;;7.99;41.58;102240.69;6215298;23;20024;-62
2022/03/10 00:14:41;;;;;;;32.60;17.33;;;;;;;7.90;41.50;102249.91;6215491;23;20000;-62
2022/03/10 00:17:06;;;;;;;33.58;16.55;;;;;;;7.90;41.58;102249.91;6217051;23;20070;-62
2022/03/10 00:19:32;;;;;;;32.72;16.35;;;;;;;8.00;42.23;102252.09;6216799;23;20000;-62
2022/03/10 00:21:58;;;;;;;33.50;17.05;;;;;;;8.01;41.37;102260.09;6214925;23;20359;-63
2022/03/10 00:24:24;;;;;;;33.08;16.30;;;;;;;8.03;42.01;102254.88;6216507;23;20007;-62
2022/03/10 00:26:50;;;;;;;32.63;16.77;;;;;;;8.07;41.07;102255.91;6216925;23;20001;-63
2022/03/10 00:29:15;;;;;;;35.60;18.40;;;;;;;8.11;41.69;102248.22;6217368;23;20450;-63
2022/03/10 00:31:41;;;;;;;31.10;16.92;;;;;;;8.15;41.42;102244.88;6217119;23;20032;-63
2022/03/10 00:34:07;;;;;;;34.40;17.50;;;;;;;8.18;41.69;102254.63;6217153;23;20032;-63
2022/03/10 00:36:33;;;;;;;35.95;18.10;;;;;;;8.14;41.73;102252.72;6216677;23;20103;-63
2022/03/10 00:38:58;;;;;;;34.67;16.95;;;;;;;8.04;41.86;102252.31;6216905;23;20452;-63
2022/03/10 00:41:24;;;;;;;36.20;17.92;;;;;;;7.98;41.58;102252.06;6216751;23;20082;-63
2022/03/10 00:43:49;;;;;;;37.95;17.75;;;;;;;7.96;42.04;102253.69;6217004;23;20423;-63
2022/03/10 00:46:15;;;;;;;30.92;17.83;;;;;;;7.97;42.72;102259.88;6216804;23;20001;-63
2022/03/10 00:48:40;;;;;;;40.05;17.08;;;;;;;7.93;42.19;102256.22;6216646;23;20017;-63
2022/03/10 00:51:09;;;;;;;35.97;16.92;;;;;;;7.88;42.37;102262.09;6216762;23;20044;-64
2022/03/10 00:53:34;;;;;;;35.95;16.63;;;;;;;7.89;43.09;102263.91;6216890;23;20054;-63
2022/03/10 00:56:01;;;;;;;34.85;17.17;;;;;;;7.91;42.32;102252.59;6217270;23;20004;-62
2022/03/10 00:58:26;;;;;;;34.08;16.33;;;;;;;7.90;42.81;102268.34;6217294;23;20105;-63
2022/03/10 01:00:52;;;;;;;34.38;16.02;;;;;;;7.93;43.41;102265.84;6216446;23;20429;-62
2022/03/10 01:03:18;;;;;;;29.52;16.55;;;;;;;7.90;42.91;102263.06;6216537;23;20087;-63
2022/03/10 01:05:44;;;;;;;32.97;16.67;;;;;;;7.85;43.00;102261.97;6215132;23;20036;-62
2022/03/10 01:08:10;;;;;;;33.00;15.82;;;;;;;7.84;43.57;102262.81;6216582;23;20335;-63
2022/03/10 01:10:36;;;;;;;34.47;16.42;;;;;;;7.85;43.36;102264.59;6216764;23;20001;-63
2022/03/10 01:13:01;;;;;;;34.28;16.77;;;;;;;7.77;43.75;102264.25;6216548;23;20032;-63
2022/03/10 01:15:28;;;;;;;30.95;16.38;;;;;;;7.69;43.54;102263.00;6216999;23;20026;-63
2022/03/10 01:17:54;;;;;;;29.27;16.15;;;;;;;7.65;44.21;102261.97;6217026;23;20008;-62
2022/03/10 01:20:21;;;;;;;30.13;15.80;;;;;;;7.62;43.42;102260.91;6216660;23;20091;-62
2022/03/10 01:22:48;;;;;;;32.88;16.15;;;;;;;7.62;43.87;102264.44;6216255;23;20009;-63
2022/03/10 01:25:13;;;;;;;36.08;16.55;;;;;;;7.55;44.64;102258.88;6216490;23;20080;-63
2022/03/10 01:27:39;;;;;;;32.53;16.27;;;;;;;7.49;44.46;102256.84;6216406;23;20423;-63
2022/03/10 01:30:07;;;;;;;36.00;16.67;;;;;;;7.35;44.49;102250.94;6216470;23;20058;-62
2022/03/10 01:32:38;;;;;;;30.52;16.30;;;;;;;7.27;44.33;102253.22;6216759;23;20005;-62
2022/03/10 01:35:05;;;;;;;32.50;16.58;;;;;;;7.22;45.41;102252.09;6216724;23;20392;-62
2022/03/10 01:37:32;;;;;;;29.00;16.08;;;;;;;7.18;45.43;102247.53;6216107;23;20031;-63
2022/03/10 01:39:59;;;;;;;32.90;16.02;;;;;;;7.15;45.71;102251.72;6214776;23;20005;-63
2022/03/10 01:42:25;;;;;;;32.10;15.60;;;;;;;7.17;46.32;102258.88;6216220;23;20004;-63
2022/03/10 01:44:54;;;;;;;33.80;16.45;;;;;;;7.12;45.74;102256.88;6216388;23;20000;-62
2022/03/10 01:47:20;;;;;;;29.65;15.70;;;;;;;7.07;45.37;102248.78;6216064;23;20009;-62
2022/03/10 01:49:46;;;;;;;34.25;16.48;;;;;;;7.10;46.36;102256.78;6216566;23;20011;-62
2022/03/10 01:52:12;;;;;;;33.63;16.85;;;;;;;7.06;46.03;102253.94;6216105;23;20004;-63
2022/03/10 01:54:40;;;;;;;30.30;15.60;;;;;;;7.02;46.08;102250.25;6216378;23;20000;-62
2022/03/10 01:57:05;;;;;;;33.33;15.82;;;;;;;6.99;46.17;102250.13;6216138;23;20324;-62
2022/03/10 01:59:32;;;;;;;30.15;15.75;;;;;;;6.98;47.12;102256.19;6216226;23;20001;-62
2022/03/10 02:01:59;;;;;;;31.50;16.00;;;;;;;6.89;46.40;102248.75;6216089;23;20005;-62
2022/03/10 02:04:24;;;;;;;32.88;14.85;;;;;;;6.87;47.38;102249.53;6215177;23;20359;-62
2022/03/10 02:06:52;;;;;;;30.88;15.52;;;;;;;6.82;47.07;102251.94;6215877;23;20076;-63
2022/03/10 02:12:02;;;;;;;28.00;15.82;;;;;;;6.72;47.36;102241.78;6216256;23;20015;-63
2022/03/10 02:17:20;;;;;;;31.40;15.30;;;;;;;6.76;47.21;102247.25;6216069;23;20143;-63
2022/03/10 02:19:50;;;;;;;32.92;15.57;;;;;;;6.73;47.22;102241.00;6215947;23;20000;-62
2022/03/10 02:22:16;;;;;;;31.70;16.13;;;;;;;6.73;47.27;102241.88;6216245;23;20016;-62
2022/03/10 02:24:44;;;;;;;29.92;16.10;;;;;;;6.73;47.76;102241.88;6216289;23;20004;-62
2022/03/10 02:27:21;;;;;;;33.65;16.00;;;;;;;6.72;47.10;102244.41;6216205;23;20035;-62
2022/03/10 02:29:49;;;;;;;30.92;15.57;;;;;;;6.69;47.54;102244.28;6215706;23;20343;-63
2022/03/10 02:32:17;;;;;;;28.92;15.45;;;;;;;6.70;47.68;102249.59;6215746;23;20007;-63
2022/03/10 02:34:43;;;;;;;27.50;15.07;;;;;;;6.66;48.53;102244.13;6215997;23;20001;-62
2022/03/10 02:37:09;;;;;;;27.27;14.68;;;;;;;6.62;48.21;102245.69;6215836;23;20005;-63
2022/03/10 02:39:36;;;;;;;32.33;16.15;;;;;;;6.64;48.12;102244.06;6214668;23;20019;-62
2022/03/10 02:42:02;;;;;;;28.00;14.70;;;;;;;6.59;48.42;102235.03;6215010;23;20359;-63
2022/03/10 02:44:28;;;;;;;30.67;15.73;;;;;;;6.60;47.96;102242.13;6215884;23;20011;-63
2022/03/10 02:46:54;;;;;;;33.30;16.60;;;;;;;6.62;48.07;102243.06;6215298;23;20040;-63
2022/03/10 02:49:19;;;;;;;30.88;16.92;;;;;;;6.60;48.00;102250.00;6215733;23;20020;-62
2022/03/10 02:51:45;;;;;;;27.77;15.57;;;;;;;6.59;48.20;102236.75;6216097;23;20040;-62
2022/03/10 02:54:11;;;;;;;32.83;15.52;;;;;;;6.56;47.75;102234.00;6215722;23;20430;-62
2022/03/10 02:56:37;;;;;;;33.05;16.40;;;;;;;6.53;47.82;102240.91;6215732;23;20000;-62
2022/03/10 02:59:03;;;;;;;33.40;16.92;;;;;;;6.44;48.47;102235.19;6215767;23;20075;-62
2022/03/10 03:01:29;;;;;;;32.70;16.20;;;;;;;6.49;48.49;102235.41;6215324;23;20028;-63
2022/03/10 03:03:55;;;;;;;28.17;16.38;;;;;;;6.48;48.55;102239.78;6215612;23;20343;-62
2022/03/10 03:06:20;;;;;;;27.95;15.73;;;;;;;6.50;48.62;102234.59;6215650;23;20028;-62
2022/03/10 03:08:46;;;;;;;29.90;15.90;;;;;;;6.50;48.59;102245.09;6215504;23;20446;-62
2022/03/10 03:11:11;;;;;;;30.65;15.13;;;;;;;6.47;48.92;102235.34;6215162;23;20285;-62
2022/03/10 03:13:37;;;;;;;32.42;15.98;;;;;;;6.49;48.65;102240.66;6215368;23;20431;-62
2022/03/10 03:16:04;;;;;;;33.63;15.93;;;;;;;6.37;49.06;102243.56;6214373;23;20012;-63
2022/03/10 03:18:29;;;;;;;27.83;15.70;;;;;;;6.19;49.52;102245.28;6215120;23;20061;-62
2022/03/10 03:20:55;;;;;;;33.13;15.57;;;;;;;6.07;49.75;102253.41;6214928;23;20487;-63
2022/03/10 03:23:23;;;;;;;27.58;14.60;;;;;;;5.99;49.91;102250.38;6214887;23;20012;-62
2022/03/10 03:25:49;;;;;;;28.70;15.93;;;;;;;5.90;50.10;102251.59;6215127;23;20051;-62
2022/03/10 03:28:14;;;;;;;28.85;14.38;;;;;;;5.92;50.27;102258.78;6215455;23;20004;-62
2022/03/10 03:30:40;;;;;;;30.35;15.00;;;;;;;5.98;49.96;102261.72;6215021;23;20296;-63
2022/03/10 03:33:05;;;;;;;29.83;14.95;;;;;;;6.05;50.09;102255.09;6215618;23;20501;-62
2022/03/10 03:35:31;;;;;;;25.58;14.98;;;;;;;6.11;50.12;102257.09;6215307;23;20000;-62
2022/03/10 03:37:57;;;;;;;30.40;14.73;;;;;;;6.17;50.17;102258.34;6215340;23;20439;-62
2022/03/10 03:40:23;;;;;;;30.67;15.80;;;;;;;6.20;49.64;102262.81;6213680;23;20004;-62
2022/03/10 03:42:48;;;;;;;30.42;16.08;;;;;;;6.21;49.59;102262.91;6215452;23;20019;-62
2022/03/10 03:45:15;;;;;;;25.85;14.88;;;;;;;6.22;49.37;102259.47;6215191;23;20031;-62
2022/03/10 03:47:40;;;;;;;28.20;15.30;;;;;;;6.18;49.86;102259.25;6214822;23;20344;-63
2022/03/10 03:50:06;;;;;;;29.15;15.35;;;;;;;6.14;49.51;102255.53;6214730;23;20005;-63
2022/03/10 03:52:32;;;;;;;27.83;14.60;;;;;;;6.12;49.80;102261.53;6217461;23;20009;-62
2022/03/10 03:54:57;;;;;;;31.20;15.30;;;;;;;6.10;49.66;102260.56;6217734;23;20032;-62
2022/03/10 03:57:23;;;;;;;29.40;15.20;;;;;;;6.12;49.79;102267.66;6217986;23;20026;-62
2022/03/10 03:59:51;;;;;;;30.33;15.82;;;;;;;6.10;50.11;102277.22;6217089;23;20001;-62
2022/03/10 04:02:18;;;;;;;28.92;15.38;;;;;;;6.08;49.86;102268.38;6217185;23;20004;-62
2022/03/10 04:04:44;;;;;;;27.25;15.18;;;;;;;6.05;49.77;102277.78;6217324;23;20009;-62
2022/03/10 04:07:09;;;;;;;34.13;16.25;;;;;;;5.96;49.59;102289.59;6217444;23;20128;-62
2022/03/10 04:09:35;;;;;;;27.75;15.43;;;;;;;5.87;50.01;102282.94;6217685;23;20450;-62
2022/03/10 04:12:02;;;;;;;28.55;15.00;;;;;;;5.90;50.32;102293.59;6217188;23;20013;-62
2022/03/10 04:14:28;;;;;;;26.67;14.73;;;;;;;5.94;49.72;102282.47;6217168;23;20047;-62
2022/03/10 04:16:53;;;;;;;31.77;15.23;;;;;;;5.98;49.84;102297.56;6217099;23;20130;-63
2022/03/10 04:19:19;;;;;;;31.40;14.65;;;;;;;6.00;49.57;102285.44;6217408;23;20008;-62
2022/03/10 04:21:45;;;;;;;30.42;14.30;;;;;;;6.06;49.58;102283.13;6217097;23;20061;-62
2022/03/10 04:24:10;;;;;;;31.17;15.07;;;;;;;6.08;49.41;102291.06;6217155;23;20001;-62
2022/03/10 04:26:36;;;;;;;28.33;15.65;;;;;;;6.06;49.85;102290.09;6217076;23;20007;-62
2022/03/10 04:29:01;;;;;;;32.47;15.75;;;;;;;6.02;49.74;102281.16;6217412;23;20091;-62
2022/03/10 04:31:27;;;;;;;29.30;14.05;;;;;;;6.06;50.11;102285.75;6217043;23;20005;-62
2022/03/10 04:33:52;;;;;;;32.60;15.15;;;;;;;5.99;49.46;102281.88;6217191;23;20008;-62
2022/03/10 04:36:18;;;;;;;25.50;14.40;;;;;;;5.93;49.87;102292.06;6216908;23;20001;-62
2022/03/10 04:38:44;;;;;;;28.35;14.52;;;;;;;5.92;50.01;102292.00;6215451;23;20000;-62
2022/03/10 04:41:15;;;;;;;27.90;14.85;;;;;;;5.89;50.00;102290.06;6217064;23;20080;-62
2022/03/10 04:43:40;;;;;;;26.13;14.70;;;;;;;5.84;49.72;102288.03;6215330;23;20011;-63
2022/03/10 04:46:06;;;;;;;28.52;15.00;;;;;;;5.83;49.79;102294.09;6216900;23;20000;-62
2022/03/10 04:48:31;;;;;;;28.60;14.77;;;;;;;5.80;49.96;102283.44;6216394;23;20013;-62
2022/03/10 04:50:57;;;;;;;29.58;14.45;;;;;;;5.76;49.70;102280.63;6216867;23;20024;-62
2022/03/10 04:53:23;;;;;;;27.85;14.60;;;;;;;5.77;50.45;102279.81;6216949;23;20015;-62
2022/03/10 04:55:49;;;;;;;32.65;13.77;;;;;;;5.76;50.17;102285.88;6217105;23;20001;-62
2022/03/10 04:58:15;;;;;;;29.60;14.50;;;;;;;5.73;50.19;102277.84;6216785;23;20011;-63
2022/03/10 05:00:40;;;;;;;26.83;13.95;;;;;;;5.71;50.44;102279.50;6216915;23;20093;-62
2022/03/10 05:03:06;;;;;;;29.55;14.07;;;;;;;5.65;50.32;102284.44;6216615;23;20082;-62
2022/03/10 05:05:31;;;;;;;30.88;14.40;;;;;;;5.64;50.50;102285.22;6216593;23;20008;-62
2022/03/10 05:07:57;;;;;;;27.80;14.98;;;;;;;5.62;50.18;102286.88;6216694;23;20016;-63
2022/03/10 05:10:22;;;;;;;27.63;14.70;;;;;;;5.60;50.23;102288.50;6216678;23;20000;-63
2022/03/10 05:12:53;;;;;;;25.73;14.48;;;;;;;5.61;50.45;102292.03;6216966;23;20005;-63
2022/03/10 05:15:20;;;;;;;27.45;14.63;;;;;;;5.53;50.54;102291.63;6216699;23;20000;-63
2022/03/10 05:17:46;;;;;;;28.08;14.63;;;;;;;5.47;49.97;102297.41;6216600;23;20015;-64
2022/03/10 05:20:11;;;;;;;31.10;14.55;;;;;;;5.46;50.53;102297.34;6215072;23;20008;-63
2022/03/10 05:22:52;;;;;;;27.67;14.13;;;;;;;5.50;50.64;102299.31;6216507;23;20013;-62
2022/03/10 05:25:18;;;;;;;27.15;14.68;;;;;;;5.52;50.58;102297.66;6216818;23;20072;-63
2022/03/10 05:27:45;;;;;;;27.77;14.55;;;;;;;5.37;50.74;102291.59;6216611;23;20066;-63
2022/03/10 05:30:12;;;;;;;29.27;14.95;;;;;;;5.17;50.67;102291.38;6216572;23;20398;-63
2022/03/10 05:32:38;;;;;;;27.23;14.25;;;;;;;5.14;51.17;102299.09;6216638;23;20005;-63
2022/03/10 05:35:04;;;;;;;27.83;15.15;;;;;;;5.14;51.71;102295.56;6216441;23;20075;-63
2022/03/10 05:37:30;;;;;;;28.27;14.32;;;;;;;5.16;51.38;102297.44;6216814;23;20005;-62
2022/03/10 05:39:56;;;;;;;28.10;14.45;;;;;;;5.16;50.99;102302.69;6216795;23;20005;-63
2022/03/10 05:42:22;;;;;;;28.00;14.60;;;;;;;5.21;51.66;102305.56;6216365;23;20375;-63
2022/03/10 05:44:48;;;;;;;28.23;14.75;;;;;;;5.23;51.58;102298.72;6216806;23;20028;-63
2022/03/10 05:47:13;;;;;;;26.38;14.80;;;;;;;5.23;51.50;102299.63;6215966;23;20339;-63
2022/03/10 05:49:39;;;;;;;27.30;14.75;;;;;;;5.23;51.69;102304.84;6216203;23;20367;-63
2022/03/10 05:52:05;;;;;;;26.30;14.73;;;;;;;5.19;52.20;102297.63;6216605;23;20005;-62
2022/03/10 05:54:31;;;;;;;25.88;14.38;;;;;;;5.17;52.10;102298.34;6216479;23;20055;-63
2022/03/10 05:56:57;;;;;;;27.50;14.32;;;;;;;5.15;51.82;102295.66;6216205;23;20008;-63
2022/03/10 05:59:22;;;;;;;28.95;14.00;;;;;;;5.19;51.79;102308.13;6215955;23;20138;-63
2022/03/10 06:01:49;;;;;;;30.50;15.40;;;;;;;5.13;51.42;102302.50;6215321;23;20048;-62
2022/03/10 06:04:15;;;;;;;26.60;14.55;;;;;;;5.13;51.08;102299.00;6215288;23;20015;-63
2022/03/10 06:06:43;;;;;;;26.80;14.60;;;;;;;5.10;51.11;102302.38;6215450;23;20008;-62
2022/03/10 06:09:09;;;;;;;29.65;16.10;;;;;;;5.08;51.08;102290.88;6215882;23;20010;-63
2022/03/10 06:11:34;;;;;;;28.60;15.05;;;;;;;5.07;52.06;102296.03;6215238;23;20028;-62
2022/03/10 06:14:00;;;;;;;28.35;14.82;;;;;;;5.07;51.61;102296.03;6215216;23;20004;-63
2022/03/10 06:16:26;;;;;;;30.10;15.65;;;;;;;5.08;51.56;102297.84;6215654;23;20054;-62
2022/03/10 06:18:51;;;;;;;29.10;15.80;;;;;;;5.08;51.60;102293.50;6215603;23;20001;-62
2022/03/10 06:21:17;;;;;;;30.60;15.73;;;;;;;5.11;50.97;102300.66;6215595;23;20005;-62
2022/03/10 06:23:42;;;;;;;30.63;15.10;;;;;;;5.19;51.12;102294.13;6215156;23;20371;-62
2022/03/10 06:26:09;;;;;;;28.05;14.15;;;;;;;5.27;50.55;102296.34;6215369;23;20004;-63
2022/03/10 06:28:34;;;;;;;35.47;17.25;;;;;;;5.34;50.84;102305.44;6215061;23;20435;-62
2022/03/10 06:30:59;;;;;;;33.13;15.98;;;;;;;5.49;50.13;102305.38;6215314;23;20075;-62
2022/03/10 06:33:25;;;;;;;29.40;14.68;;;;;;;5.56;49.77;102312.75;6214979;23;20007;-63
2022/03/10 06:35:50;;;;;;;32.03;15.98;;;;;;;5.55;49.94;102299.56;6215177;23;20090;-63
2022/03/10 06:38:16;;;;;;;29.55;15.10;;;;;;;5.69;49.64;102309.06;6215270;23;20051;-63
2022/03/10 06:40:42;;;;;;;32.90;16.02;;;;;;;5.73;49.73;102301.44;6215153;23;20435;-63
2022/03/10 06:43:13;;;;;;;32.50;15.55;;;;;;;5.78;49.91;102305.25;6214905;23;20009;-63
2022/03/10 06:45:38;;;;;;;31.48;15.75;;;;;;;5.85;49.23;102300.31;6215000;23;20004;-63
2022/03/10 06:48:04;;;;;;;32.15;14.80;;;;;;;5.89;49.25;102310.16;6214692;23;20069;-63
2022/03/10 06:50:30;;;;;;;27.85;14.60;;;;;;;5.97;49.22;102317.63;6214834;23;20008;-63
2022/03/10 06:53:05;;;;;;;35.60;14.95;;;;;;;6.10;48.65;102318.28;6214901;23;20008;-63
2022/03/10 06:55:30;;;;;;;28.88;15.18;;;;;;;6.23;48.40;102318.09;6215232;23;20001;-62
2022/03/10 06:58:05;;;;;;;28.83;14.40;;;;;;;6.39;48.29;102317.19;6215057;23;20335;-62
2022/03/10 07:00:31;;;;;;;29.08;14.38;;;;;;;6.52;47.81;102319.63;6214586;23;20051;-63
2022/03/10 07:02:56;;;;;;;29.05;15.65;;;;;;;6.67;47.82;102319.47;6214314;23;20000;-63
2022/03/10 07:05:23;;;;;;;27.65;14.23;;;;;;;6.83;46.97;102322.03;6214837;23;20022;-63
2022/03/10 07:07:49;;;;;;;27.90;15.13;;;;;;;7.02;47.43;102314.25;6214879;23;20095;-63
2022/03/10 07:10:15;;;;;;;28.95;14.15;;;;;;;7.15;45.97;102320.06;6214949;23;20032;-63
2022/03/10 07:12:41;;;;;;;29.80;15.05;;;;;;;7.32;45.92;102320.88;6214848;23;20327;-63
2022/03/10 07:15:09;;;;;;;32.33;15.68;;;;;;;7.42;45.71;102317.88;6215084;23;20131;-62
2022/03/10 07:17:34;;;;;;;25.95;14.43;;;;;;;7.62;46.86;102331.94;6214917;23;20012;-63
2022/03/10 07:20:00;;;;;;;30.75;15.63;;;;;;;7.70;45.75;102334.09;6214693;23;20323;-63
2022/03/10 07:22:25;;;;;;;30.83;15.32;;;;;;;7.88;45.80;102325.25;6214707;23;20335;-63
2022/03/10 07:24:51;;;;;;;30.70;15.82;;;;;;;7.98;44.79;102322.22;6214901;23;20000;-63
2022/03/10 07:27:17;;;;;;;31.15;15.98;;;;;;;8.12;44.44;102321.09;6214710;23;20009;-63
2022/03/10 07:29:42;;;;;;;30.77;15.38;;;;;;;8.21;44.85;102318.88;6214972;23;20434;-63
2022/03/10 07:32:08;;;;;;;34.75;16.42;;;;;;;8.25;44.09;102326.06;6214626;23;20005;-63
2022/03/10 07:34:34;;;;;;;35.00;15.35;;;;;;;8.31;43.91;102328.09;6214481;23;20011;-63
2022/03/10 07:36:59;;;;;;;32.22;15.93;;;;;;;8.49;44.61;102330.66;6214936;23;20011;-63
2022/03/10 07:39:25;;;;;;;33.15;16.50;;;;;;;8.59;44.02;102324.03;6214812;23;20028;-62
2022/03/10 07:41:50;;;;;;;31.15;16.60;;;;;;;8.50;43.25;102317.53;6214583;23;20335;-63
2022/03/10 07:44:15;;;;;;;28.23;16.17;;;;;;;8.60;44.38;102318.81;6214575;23;20004;-63
2022/03/10 07:46:41;;;;;;;39.80;15.93;;;;;;;8.69;43.88;102319.22;6214597;23;20000;-62
2022/03/10 07:49:08;;;;;;;29.70;15.63;;;;;;;8.87;43.99;102318.19;6214062;23;20016;-64
2022/03/10 07:51:34;;;;;;;28.00;15.27;;;;;;;8.85;43.75;102318.09;6214515;23;20084;-63
2022/03/10 07:54:00;;;;;;;29.77;15.70;;;;;;;8.99;44.06;102316.97;6214530;23;20000;-63
2022/03/10 07:56:25;;;;;;;30.80;16.45;;;;;;;9.05;43.46;102305.75;6214606;23;20004;-63
2022/03/10 07:58:50;;;;;;;30.42;16.20;;;;;;;9.12;43.54;102315.72;6214651;23;20441;-63
2022/03/10 08:01:16;;;;;;;28.95;16.55;;;;;;;9.22;43.14;102317.88;6214508;23;20005;-63
2022/03/10 08:03:41;;;;;;;29.70;16.75;;;;;;;9.33;42.65;102322.66;6214249;23;20096;-64
2022/03/10 08:06:07;;;;;;;31.08;16.13;;;;;;;9.30;42.81;102326.09;6214460;23;20011;-63
2022/03/10 08:08:35;;;;;;;30.33;16.10;;;;;;;9.30;42.62;102317.28;6214933;23;20027;-63
2022/03/10 08:11:03;;;;;;;33.70;16.83;;;;;;;9.46;42.39;102315.31;6214574;23;20326;-62
2022/03/10 08:13:31;;;;;;;35.30;17.15;;;;;;;9.70;41.81;102320.63;6214726;23;20008;-62
2022/03/10 08:15:57;;;;;;;30.65;16.88;;;;;;;9.74;41.80;102322.53;6214601;23;20681;-63
2022/03/10 08:18:23;;;;;;;30.83;16.05;;;;;;;9.77;41.10;102324.41;6214417;23;20001;-64
2022/03/10 08:20:48;;;;;;;31.80;15.98;;;;;;;9.76;42.37;102320.88;6214301;23;20000;-63
2022/03/10 08:23:16;;;;;;;32.75;17.27;;;;;;;9.95;41.34;102324.19;6214779;23;20013;-63
2022/03/10 08:25:41;;;;;;;30.33;16.55;;;;;;;9.99;40.71;102329.63;6214579;23;20055;-63
2022/03/10 08:28:08;;;;;;;27.20;15.75;;;;;;;10.19;40.98;102321.50;6214562;23;20323;-63
2022/03/10 08:30:34;;;;;;;31.77;16.05;;;;;;;10.26;40.55;102319.19;6214554;23;20446;-63
2022/03/10 08:32:59;;;;;;;35.03;17.38;;;;;;;10.53;40.84;102321.00;6214606;23;20077;-63
2022/03/10 08:35:25;;;;;;;31.65;16.52;;;;;;;10.62;40.28;102315.13;6214480;23;20423;-63
2022/03/10 08:37:51;;;;;;;31.27;16.70;;;;;;;10.87;39.35;102309.81;6216330;23;20004;-63
2022/03/10 08:40:19;;;;;;;31.20;15.40;;;;;;;11.08;38.57;102314.91;6216428;23;20007;-63
2022/03/10 08:42:46;;;;;;;29.40;16.45;;;;;;;11.27;38.81;102308.47;6216470;23;20083;-63
2022/03/10 08:45:12;;;;;;;30.52;16.75;;;;;;;11.41;38.39;102303.59;6216683;23;20005;-64
2022/03/10 08:47:38;;;;;;;26.65;15.32;;;;;;;11.59;38.40;102298.84;6216148;23;20036;-63
2022/03/10 08:50:05;;;;;;;32.10;15.80;;;;;;;11.78;38.25;102303.84;6216190;23;20001;-63
2022/03/10 08:52:31;;;;;;;28.90;16.45;;;;;;;12.00;38.56;102292.16;6216279;23;20332;-63
2022/03/10 08:54:56;;;;;;;28.77;15.93;;;;;;;12.36;37.15;102298.41;6216351;23;20001;-62
2022/03/10 08:57:22;;;;;;;30.73;16.00;;;;;;;12.56;36.56;102299.84;6216161;23;20008;-63
2022/03/10 08:59:47;;;;;;;29.35;16.48;;;;;;;12.82;36.23;102299.59;6216121;23;20012;-63
2022/03/10 09:02:13;;;;;;;30.40;16.75;;;;;;;12.88;35.51;102299.75;6216095;23;20008;-63
2022/03/10 09:04:39;;;;;;;31.88;17.33;;;;;;;12.91;36.28;102300.72;6215965;23;20005;-64
2022/03/10 09:07:04;;;;;;;31.02;17.25;;;;;;;12.91;35.27;102300.72;6216047;23;20005;-64
2022/03/10 09:09:30;;;;;;;29.67;17.85;;;;;;;12.98;35.32;102296.47;6216055;23;20015;-63
2022/03/10 09:11:56;;;;;;;30.45;16.83;;;;;;;13.18;37.11;102291.59;6216089;23;20331;-63
2022/03/10 09:14:22;;;;;;;28.60;17.25;;;;;;;13.31;35.74;102292.81;6216038;23;20004;-64
2022/03/10 09:16:47;;;;;;;31.45;17.45;;;;;;;13.45;35.14;102294.06;6216071;23;20005;-64
2022/03/10 09:19:12;;;;;;;30.58;17.67;;;;;;;13.58;34.78;102287.25;6215992;23;20028;-63
2022/03/10 09:21:38;;;;;;;32.38;16.45;;;;;;;13.43;34.48;102287.78;6216035;23;20012;-64
2022/03/10 09:24:04;;;;;;;28.77;16.45;;;;;;;13.30;34.61;102281.31;6216377;23;20493;-64
2022/03/10 09:26:29;;;;;;;30.80;17.10;;;;;;;13.30;35.57;102276.00;6215998;23;20005;-64
2022/03/10 09:28:54;;;;;;;29.65;16.75;;;;;;;13.61;36.19;102274.00;6215988;23;20001;-63
2022/03/10 09:31:20;;;;;;;33.13;17.40;;;;;;;13.95;34.75;102271.19;6215919;23;20028;-63
2022/03/10 09:33:47;;;;;;;30.77;17.15;;;;;;;14.11;33.87;102269.72;6215886;23;20028;-64
2022/03/10 09:36:14;;;;;;;29.48;17.30;;;;;;;13.86;34.50;102270.09;6215994;23;20004;-64
2022/03/10 09:38:40;;;;;;;30.90;17.17;;;;;;;14.01;34.82;102265.09;6215968;23;20000;-64
2022/03/10 09:41:05;;;;;;;31.25;17.23;;;;;;;14.23;34.22;102256.66;6215811;23;20007;-64
2022/03/10 09:43:32;;;;;;;34.47;17.02;;;;;;;14.49;33.91;102262.47;6216156;23;20095;-65
2022/03/10 09:45:58;;;;;;;28.88;16.52;;;;;;;14.76;33.83;102256.72;6215861;23;20007;-64
2022/03/10 09:48:24;;;;;;;30.08;17.98;;;;;;;14.91;33.47;102257.84;6215447;23;20032;-64
2022/03/10 09:50:50;;;;;;;28.33;17.27;;;;;;;15.13;33.15;102248.41;6215750;23;20027;-64
2022/03/10 09:53:16;;;;;;;29.95;17.55;;;;;;;15.43;32.71;102253.25;6215596;23;20372;-64
2022/03/10 09:55:42;;;;;;;29.83;16.55;;;;;;;15.66;31.78;102251.81;6215768;23;20070;-64
2022/03/10 09:58:08;;;;;;;27.33;16.92;;;;;;;15.92;32.37;102246.78;6215821;23;20423;-64
2022/03/10 10:00:33;;;;;;;30.95;17.80;;;;;;;15.89;32.14;102252.09;6215451;23;20036;-64
2022/03/10 10:02:59;;;;;;;28.52;17.23;;;;;;;15.71;32.28;102244.75;6215205;23;20140;-64
2022/03/10 10:05:26;;;;;;;30.88;17.23;;;;;;;15.71;32.11;102238.53;6216000;23;20023;-64
2022/03/10 10:08:02;;;;;;;27.45;17.63;;;;;;;15.61;32.47;102236.63;6215294;23;20490;-64
2022/03/10 10:10:29;;;;;;;31.35;18.42;;;;;;;15.51;32.70;102238.28;6215672;23;20331;-64
2022/03/10 10:12:54;;;;;;;35.05;18.25;;;;;;;15.58;33.06;102240.13;6215491;23;20016;-64
2022/03/10 10:15:20;;;;;;;32.03;18.13;;;;;;;15.97;32.30;102229.09;6215578;23;20008;-64
2022/03/10 10:17:55;;;;;;;28.67;18.15;;;;;;;16.48;32.19;102235.78;6215836;23;20237;-64
2022/03/10 10:20:21;;;;;;;31.23;17.80;;;;;;;16.76;31.55;102238.72;6215429;23;20000;-65
2022/03/10 10:22:48;;;;;;;28.55;17.80;;;;;;;16.92;30.74;102242.41;6215390;23;20016;-64
2022/03/10 10:25:19;;;;;;;33.17;17.98;;;;;;;17.08;30.26;102235.34;6215691;23;20000;-64
2022/03/10 10:27:46;;;;;;;26.70;16.88;;;;;;;16.81;31.28;102234.28;6215499;23;20011;-64
2022/03/10 10:30:12;;;;;;;28.80;17.20;;;;;;;16.69;30.72;102226.16;6215575;23;20007;-64
2022/03/10 10:32:48;;;;;;;29.55;17.63;;;;;;;16.82;30.73;102221.84;6215654;23;20036;-64
2022/03/10 10:35:20;;;;;;;31.23;17.50;;;;;;;17.02;31.15;102228.22;6215319;23;20005;-64
2022/03/10 10:37:50;;;;;;;31.63;17.65;;;;;;;17.24;30.34;102227.44;6215374;23;20083;-64
2022/03/10 10:40:31;;;;;;;28.95;17.48;;;;;;;17.11;30.81;102236.28;6215326;23;20043;-64
2022/03/10 10:42:57;;;;;;;34.53;17.40;;;;;;;17.20;30.25;102230.97;6215172;23;20438;-64
2022/03/10 10:45:39;;;;;;;30.92;17.67;;;;;;;17.30;30.82;102226.59;6215231;23;20001;-65
2022/03/10 10:48:12;;;;;;;31.15;17.83;;;;;;;17.38;30.66;102227.50;6214848;23;20016;-64
2022/03/10 10:50:40;;;;;;;31.85;18.38;;;;;;;17.74;30.05;102213.44;6215155;23;20017;-64
2022/03/10 10:53:07;;;;;;;31.30;17.77;;;;;;;17.85;29.62;102217.91;6215231;23;20008;-65
2022/03/10 10:55:41;;;;;;;32.63;17.92;;;;;;;18.10;29.37;102211.72;6215294;23;20108;-64
2022/03/10 10:58:13;;;;;;;24.58;15.88;;;;;;;18.09;29.74;102203.72;6214936;23;20004;-65
2022/03/10 11:00:47;;;;;;;28.90;18.33;;;;;;;18.21;29.89;102209.09;6215022;23;20004;-65
2022/03/10 11:03:28;;;;;;;30.30;18.48;;;;;;;18.21;29.35;102211.75;6214925;23;20376;-64
2022/03/10 11:05:55;;;;;;;27.50;17.17;;;;;;;18.40;29.39;102197.47;6214286;23;20005;-65
2022/03/10 11:08:23;;;;;;;29.38;18.63;;;;;;;18.22;29.67;102198.38;6213123;23;20284;-64
2022/03/10 11:10:50;;;;;;;32.70;18.40;;;;;;;18.54;29.64;102192.13;6214623;23;20024;-62
2022/03/10 11:13:16;;;;;;;25.60;16.58;;;;;;;18.67;29.32;102191.25;6214965;23;20063;-63
2022/03/10 11:15:43;;;;;;;28.40;17.92;;;;;;;18.57;28.85;102204.63;6214852;23;20004;-63